createdAt,value
2023-03-29T00:02:02.488Z,6.30
2023-03-29T00:04:29.556Z,6.40
2023-03-29T00:06:56.735Z,6.40
2023-03-29T00:09:26.446Z,6.30
2023-03-29T00:11:53.075Z,6.30
2023-03-29T00:14:19.950Z,6.20
2023-03-29T00:16:47.121Z,6.20
2023-03-29T00:19:13.943Z,6.20
2023-03-29T00:21:40.808Z,6.20
2023-03-29T00:24:07.612Z,6.30
2023-03-29T00:26:34.257Z,6.30
2023-03-29T00:29:00.933Z,6.30
2023-03-29T00:31:28.464Z,6.30
2023-03-29T00:33:55.220Z,6.30
2023-03-29T00:36:22.164Z,6.30
2023-03-29T00:38:49.030Z,6.30
2023-03-29T00:41:16.067Z,6.30
2023-03-29T00:44:03.519Z,6.30
2023-03-29T00:46:31.292Z,6.30
2023-03-29T00:49:07.235Z,6.30
2023-03-29T00:51:37.322Z,6.30
2023-03-29T00:54:06.366Z,6.30
2023-03-29T00:56:38.544Z,6.30
2023-03-29T00:59:18.825Z,6.30
2023-03-29T01:01:54.652Z,6.30
2023-03-29T01:04:30.922Z,6.30
2023-03-29T01:07:00.934Z,6.30
2023-03-29T01:09:31.000Z,6.30
2023-03-29T01:12:01.573Z,6.30
2023-03-29T01:14:33.724Z,6.30
2023-03-29T01:17:00.361Z,6.30
2023-03-29T01:19:34.324Z,6.30
2023-03-29T01:22:16.526Z,6.40
2023-03-29T01:25:11.184Z,6.30
2023-03-29T01:27:49.972Z,6.30
2023-03-29T01:30:24.788Z,6.30
2023-03-29T01:32:59.106Z,6.20
2023-03-29T01:35:57.724Z,6.20
2023-03-29T01:38:55.166Z,6.20
2023-03-29T01:41:23.565Z,6.10
2023-03-29T01:43:58.962Z,6.10
2023-03-29T01:46:39.411Z,6.10
2023-03-29T01:49:21.287Z,6.10
2023-03-29T01:52:13.729Z,6.20
2023-03-29T01:55:12.206Z,6.10
2023-03-29T01:57:42.541Z,6.10
2023-03-29T02:00:14.373Z,6.10
2023-03-29T02:02:43.884Z,6.10
2023-03-29T02:05:14.158Z,6.10
2023-03-29T02:07:43.505Z,6.10
2023-03-29T02:10:12.155Z,6.10
2023-03-29T02:12:38.893Z,6.10
2023-03-29T02:15:10.821Z,6.10
2023-03-29T02:17:37.487Z,6.10
2023-03-29T02:20:20.516Z,6.10
2023-03-29T02:23:09.746Z,6.10
2023-03-29T02:25:37.834Z,6.10
2023-03-29T02:28:06.037Z,6.10
2023-03-29T02:31:03.190Z,6.10
2023-03-29T02:34:24.409Z,6.10
2023-03-29T02:36:54.544Z,6.10
2023-03-29T02:39:21.703Z,6.10
2023-03-29T02:41:51.137Z,6.10
2023-03-29T02:44:22.340Z,6.10
2023-03-29T02:46:57.725Z,6.10
2023-03-29T02:49:25.182Z,6.10
2023-03-29T02:51:55.964Z,6.10
2023-03-29T02:54:29.839Z,6.20
2023-03-29T02:56:59.154Z,6.20
2023-03-29T02:59:26.726Z,6.20
2023-03-29T03:01:53.677Z,6.20
2023-03-29T03:04:23.548Z,6.20
2023-03-29T03:06:50.233Z,6.20
2023-03-29T03:09:17.464Z,6.10
2023-03-29T03:11:44.541Z,6.10
2023-03-29T03:14:11.498Z,6.10
2023-03-29T03:16:38.635Z,6.10
2023-03-29T03:19:05.724Z,6.20
2023-03-29T03:21:33.523Z,6.20
2023-03-29T03:24:00.178Z,6.10
2023-03-29T03:26:29.830Z,6.10
2023-03-29T03:28:57.469Z,6.10
2023-03-29T03:31:24.239Z,6.10
2023-03-29T03:33:51.108Z,6.10
2023-03-29T03:36:17.797Z,6.10
2023-03-29T03:38:45.080Z,6.10
2023-03-29T03:41:11.813Z,6.10
2023-03-29T03:43:41.023Z,6.20
2023-03-29T03:46:08.524Z,6.10
2023-03-29T03:48:35.889Z,6.20
2023-03-29T03:51:03.508Z,6.20
2023-03-29T03:53:30.313Z,6.10
2023-03-29T03:55:57.029Z,6.10
2023-03-29T03:58:24.343Z,6.10
2023-03-29T04:00:51.675Z,6.10
2023-03-29T04:03:18.637Z,6.10
2023-03-29T04:05:47.313Z,6.10
2023-03-29T04:08:14.911Z,6.10
2023-03-29T04:10:41.989Z,6.10
2023-03-29T04:13:08.690Z,6.00
2023-03-29T04:15:41.304Z,6.00
2023-03-29T04:18:08.618Z,6.10
2023-03-29T04:20:35.343Z,6.10
2023-03-29T04:23:02.183Z,6.00
2023-03-29T04:25:29.530Z,6.10
2023-03-29T04:27:56.558Z,6.00
2023-03-29T04:30:23.362Z,6.00
2023-03-29T04:32:50.090Z,6.10
2023-03-29T04:35:17.798Z,6.00
2023-03-29T04:37:44.480Z,6.10
2023-03-29T04:40:14.414Z,6.00
2023-03-29T04:42:45.805Z,6.00
2023-03-29T04:45:17.900Z,6.00
2023-03-29T04:47:45.682Z,5.90
2023-03-29T04:50:13.751Z,5.90
2023-03-29T04:52:40.756Z,6.00
2023-03-29T04:55:08.479Z,5.90
2023-03-29T04:57:35.263Z,6.00
2023-03-29T05:00:02.367Z,6.00
2023-03-29T05:02:32.171Z,6.00
2023-03-29T05:04:59.135Z,5.90
2023-03-29T05:07:25.832Z,6.00
2023-03-29T05:09:52.668Z,6.00
2023-03-29T05:12:19.375Z,6.00
2023-03-29T05:14:46.027Z,6.00
2023-03-29T05:17:12.685Z,6.10
2023-03-29T05:19:39.472Z,6.10
2023-03-29T05:22:06.530Z,6.10
2023-03-29T05:24:33.255Z,6.10
2023-03-29T05:27:00.033Z,6.10
2023-03-29T05:29:27.045Z,6.10
2023-03-29T05:31:54.347Z,6.10
2023-03-29T05:34:21.155Z,6.20
2023-03-29T05:36:48.975Z,6.20
2023-03-29T05:39:15.637Z,6.20
2023-03-29T05:41:42.288Z,6.20
2023-03-29T05:44:09.237Z,6.30
2023-03-29T05:46:36.226Z,6.30
2023-03-29T05:49:03.028Z,6.30
2023-03-29T05:51:29.682Z,6.30
2023-03-29T05:53:56.604Z,6.30
2023-03-29T05:56:23.284Z,6.30
2023-03-29T05:58:50.902Z,6.30
2023-03-29T06:01:18.661Z,6.30
2023-03-29T06:03:48.164Z,6.30
2023-03-29T06:06:16.371Z,6.40
2023-03-29T06:08:44.547Z,6.40
2023-03-29T06:11:13.394Z,6.40
2023-03-29T06:13:40.153Z,6.50
2023-03-29T06:16:08.508Z,6.60
2023-03-29T06:18:36.070Z,6.60
2023-03-29T06:21:03.405Z,6.60
2023-03-29T06:23:30.707Z,6.60
2023-03-29T06:25:57.916Z,6.70
2023-03-29T06:28:24.737Z,6.70
2023-03-29T06:30:53.436Z,6.80
2023-03-29T06:33:20.530Z,6.80
2023-03-29T06:35:48.533Z,6.90
2023-03-29T06:38:15.785Z,7.00
2023-03-29T06:40:44.475Z,7.10
2023-03-29T06:43:11.185Z,7.10
2023-03-29T06:45:38.944Z,7.20
2023-03-29T06:48:07.811Z,7.20
2023-03-29T06:50:35.340Z,7.20
2023-03-29T06:53:04.050Z,7.30
2023-03-29T06:55:31.612Z,7.30
2023-03-29T06:58:00.320Z,7.50
2023-03-29T07:00:29.697Z,7.50
2023-03-29T07:03:01.493Z,7.60
2023-03-29T07:05:28.420Z,7.60
2023-03-29T07:07:57.065Z,7.70
2023-03-29T07:10:32.378Z,7.80
2023-03-29T07:13:01.998Z,7.80
2023-03-29T07:15:29.363Z,7.90
2023-03-29T07:17:57.376Z,7.90
2023-03-29T07:20:24.973Z,8.00
2023-03-29T07:22:52.022Z,8.00
2023-03-29T07:25:19.469Z,8.10
2023-03-29T07:27:47.109Z,8.20
2023-03-29T07:30:17.789Z,8.20
2023-03-29T07:32:46.432Z,8.30
2023-03-29T07:35:15.138Z,8.50
2023-03-29T07:37:44.340Z,8.50
2023-03-29T07:40:16.136Z,8.40
2023-03-29T07:42:44.488Z,8.60
2023-03-29T07:45:13.791Z,8.60
2023-03-29T07:47:41.539Z,8.70
2023-03-29T07:50:09.533Z,8.80
2023-03-29T07:52:38.283Z,8.90
2023-03-29T07:55:07.164Z,9.00
2023-03-29T07:57:34.284Z,9.00
2023-03-29T08:00:01.316Z,9.00
2023-03-29T08:02:29.005Z,9.10
2023-03-29T08:04:57.003Z,9.10
2023-03-29T08:07:25.695Z,9.20
2023-03-29T08:09:52.348Z,9.20
2023-03-29T08:12:19.018Z,9.30
2023-03-29T08:14:46.102Z,9.20
2023-03-29T08:17:12.854Z,9.20
2023-03-29T08:19:39.556Z,9.20
2023-03-29T08:22:06.201Z,9.30
2023-03-29T08:24:32.934Z,9.40
2023-03-29T08:26:59.570Z,9.50
2023-03-29T08:29:26.983Z,9.50
2023-03-29T08:31:54.401Z,9.60
2023-03-29T08:34:21.265Z,9.70
2023-03-29T08:36:47.937Z,9.80
2023-03-29T08:39:14.676Z,9.80
2023-03-29T08:42:00.112Z,9.90
2023-03-29T08:44:50.796Z,10.00
2023-03-29T08:47:35.698Z,9.80
2023-03-29T08:50:02.859Z,9.80
2023-03-29T08:52:34.878Z,9.90
2023-03-29T08:55:03.890Z,9.80
2023-03-29T08:57:46.506Z,9.80
2023-03-29T09:00:38.760Z,9.90
2023-03-29T09:03:31.415Z,10.20
2023-03-29T09:06:03.184Z,10.20
2023-03-29T09:08:29.978Z,10.40
2023-03-29T09:11:11.944Z,10.50
2023-03-29T09:13:48.125Z,10.70
2023-03-29T09:16:17.904Z,10.90
2023-03-29T09:19:06.442Z,11.00
2023-03-29T09:21:51.606Z,11.20
2023-03-29T09:24:33.093Z,11.50
2023-03-29T09:27:23.788Z,11.70
2023-03-29T09:29:55.119Z,11.90
2023-03-29T09:32:53.531Z,11.90
2023-03-29T09:35:37.075Z,12.00
2023-03-29T09:38:09.495Z,12.10
2023-03-29T09:40:57.782Z,12.10
2023-03-29T09:43:36.128Z,12.10
2023-03-29T09:46:16.143Z,12.20
2023-03-29T09:48:45.709Z,12.30
2023-03-29T09:51:14.111Z,12.40
2023-03-29T09:53:40.889Z,12.50
2023-03-29T09:56:08.562Z,12.50
2023-03-29T09:58:36.090Z,12.60
2023-03-29T10:01:10.347Z,12.70
2023-03-29T10:03:39.379Z,12.70
2023-03-29T10:06:09.607Z,12.60
2023-03-29T10:08:40.746Z,12.70
2023-03-29T10:11:13.563Z,12.70
2023-03-29T10:13:59.306Z,12.90
2023-03-29T10:16:38.107Z,13.00
2023-03-29T10:19:34.739Z,13.20
2023-03-29T10:22:07.522Z,13.40
2023-03-29T10:24:34.349Z,13.70
2023-03-29T10:27:10.861Z,13.90
2023-03-29T10:29:42.206Z,14.10
2023-03-29T10:32:24.019Z,14.10
2023-03-29T10:34:51.916Z,14.10
2023-03-29T10:37:19.681Z,14.10
2023-03-29T10:39:48.447Z,14.00
2023-03-29T10:42:18.037Z,14.10
2023-03-29T10:44:56.652Z,14.20
2023-03-29T10:47:24.669Z,14.20
2023-03-29T10:49:58.673Z,14.10
2023-03-29T10:52:26.564Z,13.60
2023-03-29T10:54:56.415Z,13.70
2023-03-29T10:57:41.332Z,13.70
2023-03-29T11:00:12.408Z,13.80
2023-03-29T11:02:53.862Z,14.00
2023-03-29T11:05:54.061Z,14.30
2023-03-29T11:08:51.237Z,14.50
2023-03-29T11:11:43.921Z,14.50
2023-03-29T11:14:16.785Z,14.60
2023-03-29T11:16:52.999Z,14.70
2023-03-29T11:19:36.094Z,14.90
2023-03-29T11:22:29.092Z,14.80
2023-03-29T11:25:40.167Z,15.10
2023-03-29T11:28:15.634Z,15.30
2023-03-29T11:31:22.635Z,15.30
2023-03-29T11:34:05.527Z,15.30
2023-03-29T11:36:42.883Z,15.30
2023-03-29T11:39:38.807Z,15.20
2023-03-29T11:42:20.393Z,15.00
2023-03-29T11:44:49.454Z,14.90
2023-03-29T11:47:21.850Z,14.90
2023-03-29T11:50:13.369Z,14.80
2023-03-29T11:53:00.584Z,15.10
2023-03-29T11:55:35.529Z,15.20
2023-03-29T11:58:13.076Z,15.40
2023-03-29T12:00:57.894Z,15.80
2023-03-29T12:03:47.178Z,15.90
2023-03-29T12:06:23.641Z,15.70
2023-03-29T12:09:00.484Z,15.70
2023-03-29T12:11:38.452Z,15.40
2023-03-29T12:14:17.948Z,15.00
2023-03-29T12:16:52.858Z,15.30
2023-03-29T12:19:43.580Z,15.40
2023-03-29T12:22:10.586Z,15.70
2023-03-29T12:24:41.600Z,15.50
2023-03-29T12:27:33.073Z,15.60
2023-03-29T12:30:27.210Z,15.50
2023-03-29T12:33:02.467Z,15.60
2023-03-29T12:35:48.555Z,15.70
2023-03-29T12:38:21.493Z,15.60
2023-03-29T12:41:00.189Z,15.70
2023-03-29T12:43:32.960Z,15.80
2023-03-29T12:46:14.540Z,15.80
2023-03-29T12:48:42.528Z,15.70
2023-03-29T12:51:21.044Z,15.70
2023-03-29T12:53:50.395Z,15.70
2023-03-29T12:56:34.954Z,15.60
2023-03-29T12:59:38.018Z,15.70
2023-03-29T13:02:14.106Z,15.80
2023-03-29T13:04:43.991Z,15.70
2023-03-29T13:07:22.796Z,15.70
2023-03-29T13:09:51.889Z,15.70
2023-03-29T13:12:24.272Z,15.60
2023-03-29T13:14:57.776Z,15.80
2023-03-29T13:17:49.534Z,15.90
2023-03-29T13:20:39.529Z,15.70
2023-03-29T13:23:24.796Z,15.60
2023-03-29T13:25:57.581Z,15.70
2023-03-29T13:28:48.488Z,15.50
2023-03-29T13:31:39.934Z,15.40
2023-03-29T13:34:18.311Z,15.40
2023-03-29T13:37:24.032Z,15.50
2023-03-29T13:39:53.865Z,15.40
2023-03-29T13:42:41.785Z,15.30
2023-03-29T13:45:27.274Z,15.10
2023-03-29T13:48:06.536Z,15.20
2023-03-29T13:50:40.445Z,15.40
2023-03-29T13:53:15.394Z,15.30
2023-03-29T13:55:52.908Z,15.50
2023-03-29T13:58:48.177Z,15.60
2023-03-29T14:01:49.172Z,15.70
2023-03-29T14:04:29.701Z,15.60
2023-03-29T14:06:57.625Z,15.60
2023-03-29T14:09:30.095Z,15.40
2023-03-29T14:12:01.636Z,15.40
2023-03-29T14:14:31.537Z,15.50
2023-03-29T14:16:58.744Z,15.40
2023-03-29T14:19:30.352Z,15.30
2023-03-29T14:21:59.201Z,15.20
2023-03-29T14:24:33.685Z,15.00
2023-03-29T14:27:02.436Z,15.10
2023-03-29T14:29:36.690Z,15.30
2023-03-29T14:32:16.206Z,15.40
2023-03-29T14:34:43.964Z,15.60
2023-03-29T14:37:13.496Z,15.60
2023-03-29T14:39:41.094Z,15.60
2023-03-29T14:42:22.378Z,15.60
2023-03-29T14:44:50.285Z,15.40
2023-03-29T14:47:27.819Z,15.30
2023-03-29T14:49:56.930Z,15.20
2023-03-29T14:52:24.135Z,15.20
2023-03-29T14:54:56.479Z,15.10
2023-03-29T14:57:26.282Z,15.30
2023-03-29T14:59:58.633Z,15.30
2023-03-29T15:02:26.918Z,15.20
2023-03-29T15:04:59.975Z,15.10
2023-03-29T15:07:28.384Z,14.90
2023-03-29T15:09:57.299Z,14.70
2023-03-29T15:12:24.587Z,14.80
2023-03-29T15:14:52.640Z,14.80
2023-03-29T15:17:43.188Z,14.70
2023-03-29T15:20:51.317Z,14.60
2023-03-29T15:23:21.017Z,14.60
2023-03-29T15:25:59.141Z,14.60
2023-03-29T15:28:32.371Z,14.60
2023-03-29T15:31:20.704Z,14.50
2023-03-29T15:33:47.541Z,14.50
2023-03-29T15:36:15.157Z,14.60
2023-03-29T15:38:44.991Z,14.60
2023-03-29T15:41:13.470Z,14.60
2023-03-29T15:43:41.191Z,14.50
2023-03-29T15:46:08.283Z,14.40
2023-03-29T15:48:35.167Z,14.40
2023-03-29T15:51:04.813Z,14.40
2023-03-29T15:53:32.978Z,14.30
2023-03-29T15:56:02.499Z,14.30
2023-03-29T15:58:31.633Z,14.20
2023-03-29T16:01:23.363Z,14.20
2023-03-29T16:03:50.998Z,14.20
2023-03-29T16:06:22.280Z,14.30
2023-03-29T16:08:49.002Z,14.30
2023-03-29T16:11:15.661Z,14.30
2023-03-29T16:13:42.359Z,14.20
2023-03-29T16:16:10.939Z,14.20
2023-03-29T16:18:38.063Z,14.20
2023-03-29T16:21:05.354Z,14.10
2023-03-29T16:23:32.206Z,14.00
2023-03-29T16:25:59.385Z,14.00
2023-03-29T16:28:26.436Z,14.00
2023-03-29T16:30:53.073Z,14.00
2023-03-29T16:33:19.731Z,14.00
2023-03-29T16:35:46.576Z,14.00
2023-03-29T16:38:13.231Z,14.00
2023-03-29T16:40:39.972Z,13.90
2023-03-29T16:43:07.656Z,13.90
2023-03-29T16:45:34.410Z,13.80
2023-03-29T16:48:01.621Z,13.70
2023-03-29T16:50:28.473Z,13.70
2023-03-29T16:52:55.213Z,13.60
2023-03-29T16:55:21.892Z,13.60
2023-03-29T16:57:50.790Z,13.60
2023-03-29T17:00:19.862Z,13.60
2023-03-29T17:02:49.709Z,13.50
2023-03-29T17:05:17.402Z,13.40
2023-03-29T17:07:44.818Z,13.40
2023-03-29T17:10:12.371Z,13.30
2023-03-29T17:12:39.074Z,13.30
2023-03-29T17:15:07.793Z,13.30
2023-03-29T17:17:35.455Z,13.20
2023-03-29T17:20:02.251Z,13.10
2023-03-29T17:22:29.023Z,13.10
2023-03-29T17:24:55.703Z,13.10
2023-03-29T17:27:22.416Z,13.00
2023-03-29T17:29:49.757Z,13.00
2023-03-29T17:32:16.455Z,13.00
2023-03-29T17:34:43.211Z,12.90
2023-03-29T17:37:09.971Z,12.90
2023-03-29T17:39:37.683Z,12.80
2023-03-29T17:42:05.386Z,12.70
2023-03-29T17:44:33.196Z,12.70
2023-03-29T17:47:00.783Z,12.60
2023-03-29T17:49:27.844Z,12.60
2023-03-29T17:51:54.536Z,12.60
2023-03-29T17:54:21.339Z,12.50
2023-03-29T17:56:48.822Z,12.50
2023-03-29T17:59:15.846Z,12.50
2023-03-29T18:01:42.854Z,12.40
2023-03-29T18:04:09.576Z,12.40
2023-03-29T18:06:36.310Z,12.30
2023-03-29T18:09:03.183Z,12.30
2023-03-29T18:11:30.239Z,12.30
2023-03-29T18:13:59.464Z,12.30
2023-03-29T18:16:26.567Z,12.30
2023-03-29T18:18:53.349Z,12.30
2023-03-29T18:21:20.773Z,12.30
2023-03-29T18:23:48.914Z,12.30
2023-03-29T18:26:16.740Z,12.30
2023-03-29T18:28:46.949Z,12.30
2023-03-29T18:31:16.488Z,12.30
2023-03-29T18:33:43.318Z,12.30
2023-03-29T18:36:13.170Z,12.30
2023-03-29T18:38:42.985Z,12.30
2023-03-29T18:41:12.080Z,12.30
2023-03-29T18:43:39.776Z,12.30
2023-03-29T18:46:07.820Z,12.20
2023-03-29T18:48:38.680Z,12.30
2023-03-29T18:51:10.413Z,12.20
2023-03-29T18:53:39.215Z,12.20
2023-03-29T18:56:06.527Z,12.20
2023-03-29T18:58:33.449Z,12.20
2023-03-29T19:01:03.519Z,12.20
2023-03-29T19:03:31.359Z,12.10
2023-03-29T19:05:58.133Z,12.10
2023-03-29T19:08:26.224Z,12.10
2023-03-29T19:10:59.918Z,12.10
2023-03-29T19:13:27.024Z,12.10
2023-03-29T19:15:53.715Z,12.10
2023-03-29T19:18:20.475Z,12.10
2023-03-29T19:20:50.804Z,12.10
2023-03-29T19:23:18.423Z,12.10
2023-03-29T19:25:55.827Z,12.10
2023-03-29T19:28:22.641Z,12.10
2023-03-29T19:30:49.732Z,12.10
2023-03-29T19:33:16.998Z,12.00
2023-03-29T19:35:44.123Z,12.10
2023-03-29T19:38:11.240Z,12.10
2023-03-29T19:40:38.115Z,12.10
2023-03-29T19:43:05.009Z,12.10
2023-03-29T19:45:31.701Z,12.10
2023-03-29T19:48:02.938Z,12.00
2023-03-29T19:50:31.523Z,12.10
2023-03-29T19:52:58.459Z,12.00
2023-03-29T19:55:25.922Z,12.10
2023-03-29T19:57:52.637Z,12.00
2023-03-29T20:00:24.352Z,12.10
2023-03-29T20:02:52.595Z,12.00
2023-03-29T20:05:20.086Z,12.00
2023-03-29T20:07:46.758Z,12.00
2023-03-29T20:10:13.640Z,11.90
2023-03-29T20:12:40.603Z,11.90
2023-03-29T20:15:07.788Z,11.90
2023-03-29T20:17:35.413Z,11.90
2023-03-29T20:20:06.506Z,11.80
2023-03-29T20:22:33.182Z,11.80
2023-03-29T20:24:59.789Z,11.80
2023-03-29T20:27:29.105Z,11.80
2023-03-29T20:29:55.981Z,11.80
2023-03-29T20:32:22.687Z,11.80
2023-03-29T20:34:49.410Z,11.80
2023-03-29T20:37:16.092Z,11.70
2023-03-29T20:39:43.027Z,11.80
2023-03-29T20:42:09.776Z,11.70
2023-03-29T20:44:36.571Z,11.70
2023-03-29T20:47:04.869Z,11.80
2023-03-29T20:49:39.182Z,11.70
2023-03-29T20:52:09.215Z,11.70
2023-03-29T20:54:37.012Z,11.70
2023-03-29T20:57:05.063Z,11.70
2023-03-29T20:59:31.891Z,11.70
2023-03-29T21:02:00.021Z,11.70
2023-03-29T21:04:27.759Z,11.70
2023-03-29T21:06:56.098Z,11.70
2023-03-29T21:09:25.303Z,11.70
2023-03-29T21:11:53.134Z,11.70
2023-03-29T21:14:21.191Z,11.70
2023-03-29T21:16:49.897Z,11.70
2023-03-29T21:19:17.250Z,11.70
2023-03-29T21:21:44.928Z,11.70
2023-03-29T21:24:13.681Z,11.70
2023-03-29T21:26:41.793Z,11.70
2023-03-29T21:29:08.475Z,11.70
2023-03-29T21:31:35.429Z,11.70
2023-03-29T21:34:02.132Z,11.70
2023-03-29T21:36:28.834Z,11.70
2023-03-29T21:38:55.802Z,11.60
2023-03-29T21:41:22.602Z,11.60
2023-03-29T21:43:50.392Z,11.60
2023-03-29T21:46:17.117Z,11.60
2023-03-29T21:48:43.880Z,11.60
2023-03-29T21:51:10.581Z,11.60
2023-03-29T21:53:37.279Z,11.50
2023-03-29T21:56:04.569Z,11.50
2023-03-29T21:58:31.810Z,11.50
2023-03-29T22:00:58.571Z,11.50
2023-03-29T22:03:25.543Z,11.50
2023-03-29T22:05:57.095Z,11.50
2023-03-29T22:08:26.907Z,11.50
2023-03-29T22:10:55.433Z,11.40
2023-03-29T22:13:28.029Z,11.40
2023-03-29T22:15:58.404Z,11.50
2023-03-29T22:18:30.042Z,11.50
2023-03-29T22:20:57.177Z,11.50
2023-03-29T22:23:24.893Z,11.50
2023-03-29T22:25:51.582Z,11.50
2023-03-29T22:28:18.318Z,11.50
2023-03-29T22:30:44.937Z,11.50
2023-03-29T22:33:11.661Z,11.50
2023-03-29T22:35:38.323Z,11.50
2023-03-29T22:38:04.986Z,11.50
2023-03-29T22:40:33.184Z,11.50
2023-03-29T22:43:00.155Z,11.50
2023-03-29T22:45:26.878Z,11.60
2023-03-29T22:47:53.543Z,11.60
2023-03-29T22:50:20.534Z,11.60
2023-03-29T22:52:47.207Z,11.60
2023-03-29T22:55:14.140Z,11.60
2023-03-29T22:57:40.840Z,11.50
2023-03-29T23:00:08.884Z,11.60
2023-03-29T23:02:36.639Z,11.60
2023-03-29T23:05:03.554Z,11.60
2023-03-29T23:07:30.252Z,11.60
2023-03-29T23:09:56.943Z,11.60
2023-03-29T23:12:24.158Z,11.60
2023-03-29T23:14:53.064Z,11.60
2023-03-29T23:17:20.468Z,11.60
2023-03-29T23:19:47.818Z,11.60
2023-03-29T23:22:14.674Z,11.50
2023-03-29T23:24:43.402Z,11.50
2023-03-29T23:27:10.359Z,11.50
2023-03-29T23:29:37.807Z,11.60
2023-03-29T23:32:04.734Z,11.50
2023-03-29T23:34:31.406Z,11.60
2023-03-29T23:36:58.086Z,11.50
2023-03-29T23:39:25.135Z,11.50
2023-03-29T23:41:51.797Z,11.50
2023-03-29T23:44:18.448Z,11.50
2023-03-29T23:46:45.152Z,11.50
2023-03-29T23:49:11.972Z,11.50
2023-03-29T23:51:39.014Z,11.50
2023-03-29T23:54:06.208Z,11.40
2023-03-29T23:56:33.315Z,11.50
2023-03-29T23:59:00.114Z,11.50
